sensor_id;sensor_type;location;lat;lon;timestamp;P1;durP1;ratioP1;P2;durP2;ratioP2
14748;SDS011;7466;53.574;9.976;2023-04-16T00:01:24;27.07;;;21.93;;
14748;SDS011;7466;53.574;9.976;2023-04-16T00:03:51;28.80;;;21.90;;
14748;SDS011;7466;53.574;9.976;2023-04-16T00:06:17;28.23;;;21.57;;
14748;SDS011;7466;53.574;9.976;2023-04-16T00:08:46;26.47;;;21.37;;
14748;SDS011;7466;53.574;9.976;2023-04-16T00:11:12;24.80;;;20.90;;
14748;SDS011;7466;53.574;9.976;2023-04-16T00:13:39;30.80;;;21.90;;
14748;SDS011;7466;53.574;9.976;2023-04-16T00:16:06;28.30;;;21.10;;
14748;SDS011;7466;53.574;9.976;2023-04-16T00:18:34;32.53;;;21.50;;
14748;SDS011;7466;53.574;9.976;2023-04-16T00:21:00;31.63;;;21.13;;
14748;SDS011;7466;53.574;9.976;2023-04-16T00:23:27;30.63;;;21.80;;
14748;SDS011;7466;53.574;9.976;2023-04-16T00:25:56;28.20;;;20.40;;
14748;SDS011;7466;53.574;9.976;2023-04-16T00:28:26;27.07;;;20.00;;
14748;SDS011;7466;53.574;9.976;2023-04-16T00:30:53;29.20;;;20.93;;
14748;SDS011;7466;53.574;9.976;2023-04-16T00:33:20;32.70;;;21.00;;
14748;SDS011;7466;53.574;9.976;2023-04-16T00:35:47;27.60;;;20.40;;
14748;SDS011;7466;53.574;9.976;2023-04-16T00:38:14;27.77;;;21.23;;
14748;SDS011;7466;53.574;9.976;2023-04-16T00:40:41;27.23;;;21.57;;
14748;SDS011;7466;53.574;9.976;2023-04-16T00:43:09;25.70;;;19.53;;
14748;SDS011;7466;53.574;9.976;2023-04-16T00:45:36;27.67;;;20.67;;
14748;SDS011;7466;53.574;9.976;2023-04-16T00:48:03;25.83;;;21.03;;
14748;SDS011;7466;53.574;9.976;2023-04-16T00:50:30;29.10;;;20.43;;
14748;SDS011;7466;53.574;9.976;2023-04-16T00:52:59;29.80;;;21.07;;
14748;SDS011;7466;53.574;9.976;2023-04-16T00:55:26;28.37;;;20.50;;
14748;SDS011;7466;53.574;9.976;2023-04-16T00:57:53;29.63;;;20.33;;
14748;SDS011;7466;53.574;9.976;2023-04-16T01:00:21;23.13;;;19.37;;
14748;SDS011;7466;53.574;9.976;2023-04-16T01:02:50;24.53;;;19.33;;
14748;SDS011;7466;53.574;9.976;2023-04-16T01:05:17;26.17;;;19.83;;
14748;SDS011;7466;53.574;9.976;2023-04-16T01:07:44;26.33;;;19.90;;
14748;SDS011;7466;53.574;9.976;2023-04-16T01:10:11;26.47;;;19.93;;
14748;SDS011;7466;53.574;9.976;2023-04-16T01:12:38;26.47;;;19.00;;
14748;SDS011;7466;53.574;9.976;2023-04-16T01:15:05;27.10;;;19.40;;
14748;SDS011;7466;53.574;9.976;2023-04-16T01:17:34;27.47;;;19.57;;
14748;SDS011;7466;53.574;9.976;2023-04-16T01:20:01;23.20;;;18.83;;
14748;SDS011;7466;53.574;9.976;2023-04-16T01:22:30;23.03;;;18.80;;
14748;SDS011;7466;53.574;9.976;2023-04-16T01:24:56;27.10;;;18.53;;
14748;SDS011;7466;53.574;9.976;2023-04-16T01:27:23;27.33;;;18.53;;
14748;SDS011;7466;53.574;9.976;2023-04-16T01:29:51;24.83;;;19.33;;
14748;SDS011;7466;53.574;9.976;2023-04-16T01:32:18;23.23;;;18.70;;
14748;SDS011;7466;53.574;9.976;2023-04-16T01:34:45;24.30;;;17.97;;
14748;SDS011;7466;53.574;9.976;2023-04-16T01:37:12;28.70;;;19.30;;
14748;SDS011;7466;53.574;9.976;2023-04-16T01:39:40;22.93;;;17.67;;
14748;SDS011;7466;53.574;9.976;2023-04-16T01:42:07;22.80;;;17.93;;
14748;SDS011;7466;53.574;9.976;2023-04-16T01:44:34;28.13;;;18.17;;
14748;SDS011;7466;53.574;9.976;2023-04-16T01:47:01;27.20;;;18.67;;
14748;SDS011;7466;53.574;9.976;2023-04-16T01:49:28;22.10;;;17.77;;
14748;SDS011;7466;53.574;9.976;2023-04-16T01:51:55;24.47;;;18.43;;
14748;SDS011;7466;53.574;9.976;2023-04-16T01:54:22;22.77;;;18.73;;
14748;SDS011;7466;53.574;9.976;2023-04-16T01:56:50;23.37;;;18.00;;
14748;SDS011;7466;53.574;9.976;2023-04-16T01:59:17;26.80;;;18.10;;
14748;SDS011;7466;53.574;9.976;2023-04-16T02:01:44;23.60;;;18.63;;
14748;SDS011;7466;53.574;9.976;2023-04-16T02:04:11;28.17;;;17.87;;
14748;SDS011;7466;53.574;9.976;2023-04-16T02:06:38;22.77;;;17.87;;
14748;SDS011;7466;53.574;9.976;2023-04-16T02:09:04;21.20;;;17.33;;
14748;SDS011;7466;53.574;9.976;2023-04-16T02:11:31;22.77;;;16.80;;
14748;SDS011;7466;53.574;9.976;2023-04-16T02:13:59;21.57;;;17.27;;
14748;SDS011;7466;53.574;9.976;2023-04-16T02:16:26;25.57;;;16.83;;
14748;SDS011;7466;53.574;9.976;2023-04-16T02:18:53;23.63;;;16.30;;
14748;SDS011;7466;53.574;9.976;2023-04-16T02:21:20;24.57;;;17.53;;
14748;SDS011;7466;53.574;9.976;2023-04-16T02:23:47;24.73;;;17.03;;
14748;SDS011;7466;53.574;9.976;2023-04-16T02:26:15;19.67;;;16.47;;
14748;SDS011;7466;53.574;9.976;2023-04-16T02:28:42;21.40;;;16.60;;
14748;SDS011;7466;53.574;9.976;2023-04-16T02:31:10;21.97;;;16.90;;
14748;SDS011;7466;53.574;9.976;2023-04-16T02:33:37;20.53;;;17.27;;
14748;SDS011;7466;53.574;9.976;2023-04-16T02:36:04;21.23;;;17.03;;
14748;SDS011;7466;53.574;9.976;2023-04-16T02:38:31;21.90;;;16.93;;
14748;SDS011;7466;53.574;9.976;2023-04-16T02:40:58;21.80;;;17.27;;
14748;SDS011;7466;53.574;9.976;2023-04-16T02:43:25;21.80;;;17.93;;
14748;SDS011;7466;53.574;9.976;2023-04-16T02:45:52;24.20;;;17.60;;
14748;SDS011;7466;53.574;9.976;2023-04-16T02:48:20;23.77;;;17.43;;
14748;SDS011;7466;53.574;9.976;2023-04-16T02:50:53;21.83;;;17.33;;
14748;SDS011;7466;53.574;9.976;2023-04-16T02:53:20;21.63;;;17.47;;
14748;SDS011;7466;53.574;9.976;2023-04-16T02:55:48;25.10;;;18.60;;
14748;SDS011;7466;53.574;9.976;2023-04-16T02:58:17;21.80;;;18.80;;
14748;SDS011;7466;53.574;9.976;2023-04-16T03:00:44;20.80;;;18.57;;
14748;SDS011;7466;53.574;9.976;2023-04-16T03:03:11;24.23;;;18.10;;
14748;SDS011;7466;53.574;9.976;2023-04-16T03:05:39;28.20;;;19.03;;
14748;SDS011;7466;53.574;9.976;2023-04-16T03:08:06;22.97;;;18.27;;
14748;SDS011;7466;53.574;9.976;2023-04-16T03:10:33;23.90;;;17.77;;
14748;SDS011;7466;53.574;9.976;2023-04-16T03:13:00;26.63;;;18.80;;
14748;SDS011;7466;53.574;9.976;2023-04-16T03:15:27;26.17;;;19.13;;
14748;SDS011;7466;53.574;9.976;2023-04-16T03:17:54;25.10;;;19.37;;
14748;SDS011;7466;53.574;9.976;2023-04-16T03:20:21;25.27;;;19.37;;
14748;SDS011;7466;53.574;9.976;2023-04-16T03:22:49;23.70;;;19.30;;
14748;SDS011;7466;53.574;9.976;2023-04-16T03:25:17;26.83;;;19.37;;
14748;SDS011;7466;53.574;9.976;2023-04-16T03:27:44;25.63;;;20.57;;
14748;SDS011;7466;53.574;9.976;2023-04-16T03:30:11;24.80;;;20.20;;
14748;SDS011;7466;53.574;9.976;2023-04-16T03:32:39;25.73;;;19.13;;
14748;SDS011;7466;53.574;9.976;2023-04-16T03:35:06;28.93;;;19.80;;
14748;SDS011;7466;53.574;9.976;2023-04-16T03:37:34;24.73;;;19.53;;
14748;SDS011;7466;53.574;9.976;2023-04-16T03:40:03;23.07;;;19.83;;
14748;SDS011;7466;53.574;9.976;2023-04-16T03:42:31;26.70;;;20.53;;
14748;SDS011;7466;53.574;9.976;2023-04-16T03:44:57;28.13;;;20.37;;
14748;SDS011;7466;53.574;9.976;2023-04-16T03:47:24;23.23;;;19.87;;
14748;SDS011;7466;53.574;9.976;2023-04-16T03:49:51;25.30;;;19.47;;
14748;SDS011;7466;53.574;9.976;2023-04-16T03:52:18;28.00;;;19.93;;
14748;SDS011;7466;53.574;9.976;2023-04-16T03:54:45;25.90;;;20.30;;
14748;SDS011;7466;53.574;9.976;2023-04-16T03:57:13;24.63;;;19.47;;
14748;SDS011;7466;53.574;9.976;2023-04-16T03:59:40;26.20;;;20.23;;
14748;SDS011;7466;53.574;9.976;2023-04-16T04:02:06;26.67;;;19.93;;
14748;SDS011;7466;53.574;9.976;2023-04-16T04:04:33;27.47;;;20.40;;
14748;SDS011;7466;53.574;9.976;2023-04-16T04:07:00;23.07;;;20.20;;
14748;SDS011;7466;53.574;9.976;2023-04-16T04:09:30;27.07;;;19.83;;
14748;SDS011;7466;53.574;9.976;2023-04-16T04:11:58;28.40;;;20.10;;
14748;SDS011;7466;53.574;9.976;2023-04-16T04:14:26;27.30;;;20.73;;
14748;SDS011;7466;53.574;9.976;2023-04-16T04:16:53;26.63;;;19.17;;
14748;SDS011;7466;53.574;9.976;2023-04-16T04:19:20;26.80;;;20.30;;
14748;SDS011;7466;53.574;9.976;2023-04-16T04:21:46;25.47;;;20.33;;
14748;SDS011;7466;53.574;9.976;2023-04-16T04:24:13;28.00;;;20.80;;
14748;SDS011;7466;53.574;9.976;2023-04-16T04:26:40;24.67;;;19.90;;
14748;SDS011;7466;53.574;9.976;2023-04-16T04:29:07;25.93;;;19.73;;
14748;SDS011;7466;53.574;9.976;2023-04-16T04:31:36;28.27;;;21.43;;
14748;SDS011;7466;53.574;9.976;2023-04-16T04:34:03;23.23;;;19.50;;
14748;SDS011;7466;53.574;9.976;2023-04-16T04:36:30;26.23;;;19.93;;
14748;SDS011;7466;53.574;9.976;2023-04-16T04:38:57;24.63;;;19.43;;
14748;SDS011;7466;53.574;9.976;2023-04-16T04:41:24;25.33;;;19.47;;
14748;SDS011;7466;53.574;9.976;2023-04-16T04:43:51;27.97;;;21.17;;
14748;SDS011;7466;53.574;9.976;2023-04-16T04:46:18;24.63;;;19.20;;
14748;SDS011;7466;53.574;9.976;2023-04-16T04:48:46;24.37;;;19.30;;
14748;SDS011;7466;53.574;9.976;2023-04-16T04:51:13;26.40;;;20.00;;
14748;SDS011;7466;53.574;9.976;2023-04-16T04:53:40;26.13;;;19.03;;
14748;SDS011;7466;53.574;9.976;2023-04-16T04:56:07;25.33;;;19.63;;
14748;SDS011;7466;53.574;9.976;2023-04-16T04:58:33;27.37;;;19.33;;
14748;SDS011;7466;53.574;9.976;2023-04-16T05:01:00;24.63;;;18.70;;
14748;SDS011;7466;53.574;9.976;2023-04-16T05:03:27;22.47;;;19.90;;
14748;SDS011;7466;53.574;9.976;2023-04-16T05:05:55;27.20;;;20.33;;
14748;SDS011;7466;53.574;9.976;2023-04-16T05:08:22;26.10;;;19.27;;
14748;SDS011;7466;53.574;9.976;2023-04-16T05:10:49;24.27;;;19.00;;
14748;SDS011;7466;53.574;9.976;2023-04-16T05:13:16;26.63;;;19.73;;
14748;SDS011;7466;53.574;9.976;2023-04-16T05:15:43;22.83;;;19.20;;
14748;SDS011;7466;53.574;9.976;2023-04-16T05:18:10;24.13;;;18.83;;
14748;SDS011;7466;53.574;9.976;2023-04-16T05:20:37;25.53;;;19.30;;
14748;SDS011;7466;53.574;9.976;2023-04-16T05:23:05;26.83;;;20.07;;
14748;SDS011;7466;53.574;9.976;2023-04-16T05:25:33;24.97;;;19.17;;
14748;SDS011;7466;53.574;9.976;2023-04-16T05:28:04;23.57;;;19.40;;
14748;SDS011;7466;53.574;9.976;2023-04-16T05:30:33;22.77;;;18.60;;
14748;SDS011;7466;53.574;9.976;2023-04-16T05:33:00;24.07;;;18.90;;
14748;SDS011;7466;53.574;9.976;2023-04-16T05:35:27;25.03;;;19.53;;
14748;SDS011;7466;53.574;9.976;2023-04-16T05:37:54;25.13;;;18.90;;
14748;SDS011;7466;53.574;9.976;2023-04-16T05:40:22;22.77;;;19.07;;
14748;SDS011;7466;53.574;9.976;2023-04-16T05:42:48;24.90;;;20.07;;
14748;SDS011;7466;53.574;9.976;2023-04-16T05:45:15;25.87;;;20.17;;
14748;SDS011;7466;53.574;9.976;2023-04-16T05:47:42;25.73;;;19.90;;
14748;SDS011;7466;53.574;9.976;2023-04-16T05:50:09;24.57;;;19.60;;
14748;SDS011;7466;53.574;9.976;2023-04-16T05:52:37;24.77;;;19.80;;
14748;SDS011;7466;53.574;9.976;2023-04-16T05:55:04;26.47;;;20.60;;
14748;SDS011;7466;53.574;9.976;2023-04-16T05:57:33;26.27;;;20.00;;
14748;SDS011;7466;53.574;9.976;2023-04-16T06:00:00;23.33;;;20.67;;
14748;SDS011;7466;53.574;9.976;2023-04-16T06:02:27;24.57;;;19.27;;
14748;SDS011;7466;53.574;9.976;2023-04-16T06:04:55;24.37;;;20.60;;
14748;SDS011;7466;53.574;9.976;2023-04-16T06:07:22;23.37;;;19.53;;
14748;SDS011;7466;53.574;9.976;2023-04-16T06:09:49;26.67;;;20.03;;
14748;SDS011;7466;53.574;9.976;2023-04-16T06:12:16;30.23;;;21.60;;
14748;SDS011;7466;53.574;9.976;2023-04-16T06:14:44;23.50;;;20.60;;
14748;SDS011;7466;53.574;9.976;2023-04-16T06:17:12;26.43;;;19.80;;
14748;SDS011;7466;53.574;9.976;2023-04-16T06:19:39;24.57;;;20.07;;
14748;SDS011;7466;53.574;9.976;2023-04-16T06:22:06;25.70;;;19.53;;
14748;SDS011;7466;53.574;9.976;2023-04-16T06:24:33;25.83;;;19.50;;
14748;SDS011;7466;53.574;9.976;2023-04-16T06:27:00;28.37;;;20.47;;
14748;SDS011;7466;53.574;9.976;2023-04-16T06:29:26;24.30;;;18.70;;
14748;SDS011;7466;53.574;9.976;2023-04-16T06:31:55;23.97;;;19.30;;
14748;SDS011;7466;53.574;9.976;2023-04-16T06:34:22;27.07;;;19.10;;
14748;SDS011;7466;53.574;9.976;2023-04-16T06:36:49;26.80;;;20.10;;
14748;SDS011;7466;53.574;9.976;2023-04-16T06:39:16;24.37;;;19.87;;
14748;SDS011;7466;53.574;9.976;2023-04-16T06:41:47;23.00;;;18.63;;
14748;SDS011;7466;53.574;9.976;2023-04-16T06:44:14;24.00;;;18.87;;
14748;SDS011;7466;53.574;9.976;2023-04-16T06:46:41;22.73;;;18.80;;
14748;SDS011;7466;53.574;9.976;2023-04-16T06:49:09;24.23;;;18.67;;
14748;SDS011;7466;53.574;9.976;2023-04-16T06:51:36;25.10;;;18.57;;
14748;SDS011;7466;53.574;9.976;2023-04-16T06:54:04;25.77;;;19.03;;
14748;SDS011;7466;53.574;9.976;2023-04-16T06:56:31;25.70;;;20.00;;
14748;SDS011;7466;53.574;9.976;2023-04-16T06:58:57;25.77;;;20.13;;
14748;SDS011;7466;53.574;9.976;2023-04-16T07:01:25;24.97;;;18.77;;
14748;SDS011;7466;53.574;9.976;2023-04-16T07:03:52;27.70;;;19.63;;
14748;SDS011;7466;53.574;9.976;2023-04-16T07:06:20;23.80;;;20.00;;
14748;SDS011;7466;53.574;9.976;2023-04-16T07:08:48;22.03;;;18.50;;
14748;SDS011;7466;53.574;9.976;2023-04-16T07:11:15;24.83;;;19.00;;
14748;SDS011;7466;53.574;9.976;2023-04-16T07:13:49;24.40;;;18.70;;
14748;SDS011;7466;53.574;9.976;2023-04-16T07:16:17;21.97;;;18.80;;
14748;SDS011;7466;53.574;9.976;2023-04-16T07:18:44;26.67;;;18.37;;
14748;SDS011;7466;53.574;9.976;2023-04-16T07:21:11;24.17;;;17.30;;
14748;SDS011;7466;53.574;9.976;2023-04-16T07:23:40;21.43;;;17.97;;
14748;SDS011;7466;53.574;9.976;2023-04-16T07:26:06;18.83;;;16.83;;
14748;SDS011;7466;53.574;9.976;2023-04-16T07:28:34;24.67;;;18.07;;
14748;SDS011;7466;53.574;9.976;2023-04-16T07:31:01;22.10;;;17.87;;
14748;SDS011;7466;53.574;9.976;2023-04-16T07:33:29;23.90;;;18.83;;
14748;SDS011;7466;53.574;9.976;2023-04-16T07:35:57;24.23;;;18.37;;
14748;SDS011;7466;53.574;9.976;2023-04-16T07:38:24;23.80;;;17.97;;
14748;SDS011;7466;53.574;9.976;2023-04-16T07:40:53;22.20;;;17.33;;
14748;SDS011;7466;53.574;9.976;2023-04-16T07:43:22;25.93;;;17.33;;
14748;SDS011;7466;53.574;9.976;2023-04-16T07:45:49;20.90;;;16.93;;
14748;SDS011;7466;53.574;9.976;2023-04-16T07:48:16;21.73;;;16.63;;
14748;SDS011;7466;53.574;9.976;2023-04-16T07:50:43;20.63;;;17.00;;
14748;SDS011;7466;53.574;9.976;2023-04-16T07:53:10;21.07;;;16.87;;
14748;SDS011;7466;53.574;9.976;2023-04-16T07:55:36;27.27;;;17.93;;
14748;SDS011;7466;53.574;9.976;2023-04-16T07:58:11;21.80;;;17.53;;
14748;SDS011;7466;53.574;9.976;2023-04-16T08:00:38;21.60;;;16.43;;
14748;SDS011;7466;53.574;9.976;2023-04-16T08:03:05;20.60;;;17.10;;
14748;SDS011;7466;53.574;9.976;2023-04-16T08:05:32;20.57;;;17.37;;
14748;SDS011;7466;53.574;9.976;2023-04-16T08:07:59;19.30;;;16.87;;
14748;SDS011;7466;53.574;9.976;2023-04-16T08:10:26;19.33;;;16.73;;
14748;SDS011;7466;53.574;9.976;2023-04-16T08:12:53;21.07;;;16.57;;
14748;SDS011;7466;53.574;9.976;2023-04-16T08:15:21;19.73;;;16.33;;
14748;SDS011;7466;53.574;9.976;2023-04-16T08:17:48;20.30;;;16.50;;
14748;SDS011;7466;53.574;9.976;2023-04-16T08:20:16;18.23;;;15.97;;
14748;SDS011;7466;53.574;9.976;2023-04-16T08:22:43;17.77;;;15.27;;
14748;SDS011;7466;53.574;9.976;2023-04-16T08:25:10;21.60;;;16.87;;
14748;SDS011;7466;53.574;9.976;2023-04-16T08:27:37;22.00;;;16.17;;
14748;SDS011;7466;53.574;9.976;2023-04-16T08:30:05;21.80;;;17.20;;
14748;SDS011;7466;53.574;9.976;2023-04-16T08:32:34;20.10;;;16.37;;
14748;SDS011;7466;53.574;9.976;2023-04-16T08:35:01;18.27;;;16.07;;
14748;SDS011;7466;53.574;9.976;2023-04-16T08:37:28;20.55;;;15.95;;
14748;SDS011;7466;53.574;9.976;2023-04-16T08:39:55;19.07;;;15.93;;
14748;SDS011;7466;53.574;9.976;2023-04-16T08:42:22;20.83;;;15.60;;
14748;SDS011;7466;53.574;9.976;2023-04-16T08:44:56;22.23;;;15.50;;
14748;SDS011;7466;53.574;9.976;2023-04-16T08:47:29;19.50;;;16.40;;
14748;SDS011;7466;53.574;9.976;2023-04-16T08:50:00;18.07;;;16.13;;
14748;SDS011;7466;53.574;9.976;2023-04-16T08:52:29;17.37;;;15.57;;
14748;SDS011;7466;53.574;9.976;2023-04-16T08:54:58;17.57;;;15.73;;
14748;SDS011;7466;53.574;9.976;2023-04-16T08:57:34;18.13;;;14.50;;
14748;SDS011;7466;53.574;9.976;2023-04-16T09:00:05;17.20;;;14.87;;
14748;SDS011;7466;53.574;9.976;2023-04-16T09:02:33;17.50;;;15.67;;
14748;SDS011;7466;53.574;9.976;2023-04-16T09:05:04;16.27;;;14.73;;
14748;SDS011;7466;53.574;9.976;2023-04-16T09:07:32;17.13;;;15.43;;
14748;SDS011;7466;53.574;9.976;2023-04-16T09:09:59;20.90;;;14.63;;
14748;SDS011;7466;53.574;9.976;2023-04-16T09:12:27;17.97;;;14.93;;
14748;SDS011;7466;53.574;9.976;2023-04-16T09:14:56;17.67;;;14.23;;
14748;SDS011;7466;53.574;9.976;2023-04-16T09:17:23;16.40;;;14.63;;
14748;SDS011;7466;53.574;9.976;2023-04-16T09:19:51;17.77;;;15.13;;
14748;SDS011;7466;53.574;9.976;2023-04-16T09:22:20;16.17;;;14.50;;
14748;SDS011;7466;53.574;9.976;2023-04-16T09:24:47;17.73;;;14.70;;
14748;SDS011;7466;53.574;9.976;2023-04-16T09:27:16;15.30;;;13.70;;
14748;SDS011;7466;53.574;9.976;2023-04-16T09:29:44;17.20;;;14.07;;
14748;SDS011;7466;53.574;9.976;2023-04-16T09:32:10;16.27;;;14.57;;
14748;SDS011;7466;53.574;9.976;2023-04-16T09:34:52;17.23;;;15.00;;
14748;SDS011;7466;53.574;9.976;2023-04-16T09:37:21;15.60;;;13.87;;
14748;SDS011;7466;53.574;9.976;2023-04-16T09:39:52;14.80;;;13.30;;
14748;SDS011;7466;53.574;9.976;2023-04-16T09:42:21;15.63;;;13.67;;
14748;SDS011;7466;53.574;9.976;2023-04-16T09:44:49;15.83;;;14.23;;
14748;SDS011;7466;53.574;9.976;2023-04-16T09:47:16;15.80;;;14.20;;
14748;SDS011;7466;53.574;9.976;2023-04-16T09:49:43;17.03;;;14.23;;
14748;SDS011;7466;53.574;9.976;2023-04-16T09:52:11;16.23;;;14.70;;
14748;SDS011;7466;53.574;9.976;2023-04-16T09:54:45;16.87;;;15.17;;
14748;SDS011;7466;53.574;9.976;2023-04-16T09:57:13;16.10;;;14.30;;
14748;SDS011;7466;53.574;9.976;2023-04-16T09:59:40;16.30;;;14.60;;
14748;SDS011;7466;53.574;9.976;2023-04-16T10:02:07;17.20;;;14.97;;
14748;SDS011;7466;53.574;9.976;2023-04-16T10:07:17;15.73;;;14.20;;
14748;SDS011;7466;53.574;9.976;2023-04-16T10:09:45;14.83;;;13.33;;
14748;SDS011;7466;53.574;9.976;2023-04-16T10:12:14;14.63;;;13.23;;
14748;SDS011;7466;53.574;9.976;2023-04-16T10:14:41;14.97;;;13.43;;
14748;SDS011;7466;53.574;9.976;2023-04-16T10:17:08;16.80;;;14.20;;
14748;SDS011;7466;53.574;9.976;2023-04-16T10:19:37;17.23;;;13.70;;
14748;SDS011;7466;53.574;9.976;2023-04-16T10:22:04;15.53;;;13.73;;
14748;SDS011;7466;53.574;9.976;2023-04-16T10:24:32;15.53;;;13.50;;
14748;SDS011;7466;53.574;9.976;2023-04-16T10:27:01;16.40;;;13.87;;
14748;SDS011;7466;53.574;9.976;2023-04-16T10:29:29;16.70;;;13.33;;
14748;SDS011;7466;53.574;9.976;2023-04-16T10:31:57;16.77;;;13.87;;
14748;SDS011;7466;53.574;9.976;2023-04-16T10:34:24;14.13;;;12.73;;
14748;SDS011;7466;53.574;9.976;2023-04-16T10:36:53;15.37;;;13.40;;
14748;SDS011;7466;53.574;9.976;2023-04-16T10:39:21;15.63;;;13.37;;
14748;SDS011;7466;53.574;9.976;2023-04-16T10:41:49;18.37;;;14.10;;
14748;SDS011;7466;53.574;9.976;2023-04-16T10:44:17;17.33;;;14.33;;
14748;SDS011;7466;53.574;9.976;2023-04-16T10:46:45;16.47;;;14.73;;
14748;SDS011;7466;53.574;9.976;2023-04-16T10:49:15;15.10;;;13.50;;
14748;SDS011;7466;53.574;9.976;2023-04-16T10:51:51;15.93;;;13.87;;
14748;SDS011;7466;53.574;9.976;2023-04-16T10:54:19;15.13;;;13.30;;
14748;SDS011;7466;53.574;9.976;2023-04-16T10:56:48;15.30;;;13.70;;
14748;SDS011;7466;53.574;9.976;2023-04-16T10:59:20;14.87;;;13.57;;
14748;SDS011;7466;53.574;9.976;2023-04-16T11:01:49;15.27;;;13.73;;
14748;SDS011;7466;53.574;9.976;2023-04-16T11:07:01;14.57;;;13.17;;
14748;SDS011;7466;53.574;9.976;2023-04-16T11:09:46;16.37;;;14.43;;
14748;SDS011;7466;53.574;9.976;2023-04-16T11:12:20;14.83;;;13.33;;
14748;SDS011;7466;53.574;9.976;2023-04-16T11:14:50;15.00;;;13.40;;
14748;SDS011;7466;53.574;9.976;2023-04-16T11:17:19;16.50;;;13.73;;
14748;SDS011;7466;53.574;9.976;2023-04-16T11:19:47;15.30;;;13.90;;
14748;SDS011;7466;53.574;9.976;2023-04-16T11:22:15;15.03;;;13.67;;
14748;SDS011;7466;53.574;9.976;2023-04-16T11:24:42;15.70;;;14.10;;
14748;SDS011;7466;53.574;9.976;2023-04-16T11:27:13;16.20;;;14.50;;
14748;SDS011;7466;53.574;9.976;2023-04-16T11:29:40;16.07;;;14.00;;
14748;SDS011;7466;53.574;9.976;2023-04-16T11:32:09;19.37;;;14.43;;
14748;SDS011;7466;53.574;9.976;2023-04-16T11:34:42;16.77;;;13.90;;
14748;SDS011;7466;53.574;9.976;2023-04-16T11:37:10;21.30;;;15.33;;
14748;SDS011;7466;53.574;9.976;2023-04-16T11:39:49;16.73;;;14.83;;
14748;SDS011;7466;53.574;9.976;2023-04-16T11:42:20;18.03;;;14.87;;
14748;SDS011;7466;53.574;9.976;2023-04-16T11:44:51;16.17;;;14.47;;
14748;SDS011;7466;53.574;9.976;2023-04-16T11:47:20;17.03;;;14.57;;
14748;SDS011;7466;53.574;9.976;2023-04-16T11:49:47;15.83;;;14.23;;
14748;SDS011;7466;53.574;9.976;2023-04-16T11:52:23;17.03;;;15.33;;
14748;SDS011;7466;53.574;9.976;2023-04-16T11:54:52;15.80;;;14.17;;
14748;SDS011;7466;53.574;9.976;2023-04-16T11:57:22;14.47;;;12.97;;
14748;SDS011;7466;53.574;9.976;2023-04-16T11:59:50;14.47;;;12.87;;
14748;SDS011;7466;53.574;9.976;2023-04-16T12:02:26;14.53;;;13.03;;
14748;SDS011;7466;53.574;9.976;2023-04-16T12:04:59;13.87;;;12.33;;
14748;SDS011;7466;53.574;9.976;2023-04-16T12:07:27;13.93;;;12.57;;
14748;SDS011;7466;53.574;9.976;2023-04-16T12:10:03;13.53;;;12.33;;
14748;SDS011;7466;53.574;9.976;2023-04-16T12:12:31;13.87;;;12.57;;
14748;SDS011;7466;53.574;9.976;2023-04-16T12:14:59;18.53;;;13.03;;
14748;SDS011;7466;53.574;9.976;2023-04-16T12:17:29;14.47;;;12.80;;
14748;SDS011;7466;53.574;9.976;2023-04-16T12:19:57;14.30;;;12.83;;
14748;SDS011;7466;53.574;9.976;2023-04-16T12:22:27;15.70;;;12.67;;
14748;SDS011;7466;53.574;9.976;2023-04-16T12:24:57;14.93;;;13.43;;
14748;SDS011;7466;53.574;9.976;2023-04-16T12:27:24;16.53;;;13.93;;
14748;SDS011;7466;53.574;9.976;2023-04-16T12:32:33;16.60;;;14.80;;
14748;SDS011;7466;53.574;9.976;2023-04-16T12:35:00;16.77;;;14.23;;
14748;SDS011;7466;53.574;9.976;2023-04-16T12:37:27;15.03;;;13.47;;
14748;SDS011;7466;53.574;9.976;2023-04-16T12:39:54;14.47;;;12.97;;
14748;SDS011;7466;53.574;9.976;2023-04-16T12:42:20;16.83;;;13.40;;
14748;SDS011;7466;53.574;9.976;2023-04-16T12:44:47;15.73;;;13.50;;
14748;SDS011;7466;53.574;9.976;2023-04-16T12:47:14;14.63;;;13.13;;
14748;SDS011;7466;53.574;9.976;2023-04-16T12:49:42;14.67;;;13.37;;
14748;SDS011;7466;53.574;9.976;2023-04-16T12:52:09;14.27;;;12.87;;
14748;SDS011;7466;53.574;9.976;2023-04-16T12:54:37;14.87;;;13.37;;
14748;SDS011;7466;53.574;9.976;2023-04-16T12:57:03;15.40;;;13.73;;
14748;SDS011;7466;53.574;9.976;2023-04-16T12:59:49;15.27;;;13.60;;
14748;SDS011;7466;53.574;9.976;2023-04-16T13:02:15;15.00;;;13.30;;
14748;SDS011;7466;53.574;9.976;2023-04-16T13:04:43;14.63;;;13.13;;
14748;SDS011;7466;53.574;9.976;2023-04-16T13:07:10;15.03;;;13.70;;
14748;SDS011;7466;53.574;9.976;2023-04-16T13:09:37;16.20;;;13.23;;
14748;SDS011;7466;53.574;9.976;2023-04-16T13:12:05;14.87;;;13.40;;
14748;SDS011;7466;53.574;9.976;2023-04-16T13:14:32;15.63;;;13.00;;
14748;SDS011;7466;53.574;9.976;2023-04-16T13:16:59;15.33;;;13.93;;
14748;SDS011;7466;53.574;9.976;2023-04-16T13:19:26;15.43;;;13.97;;
14748;SDS011;7466;53.574;9.976;2023-04-16T13:21:54;17.00;;;14.43;;
14748;SDS011;7466;53.574;9.976;2023-04-16T13:24:21;17.80;;;14.17;;
14748;SDS011;7466;53.574;9.976;2023-04-16T13:26:48;15.10;;;13.63;;
14748;SDS011;7466;53.574;9.976;2023-04-16T13:29:16;19.77;;;14.53;;
14748;SDS011;7466;53.574;9.976;2023-04-16T13:31:43;16.87;;;15.07;;
14748;SDS011;7466;53.574;9.976;2023-04-16T13:34:10;16.97;;;14.90;;
14748;SDS011;7466;53.574;9.976;2023-04-16T13:36:37;15.77;;;13.53;;
14748;SDS011;7466;53.574;9.976;2023-04-16T13:39:05;18.40;;;15.23;;
14748;SDS011;7466;53.574;9.976;2023-04-16T13:41:35;15.73;;;14.33;;
14748;SDS011;7466;53.574;9.976;2023-04-16T13:44:11;17.80;;;14.70;;
14748;SDS011;7466;53.574;9.976;2023-04-16T13:46:38;17.40;;;14.93;;
14748;SDS011;7466;53.574;9.976;2023-04-16T13:49:07;17.57;;;15.07;;
14748;SDS011;7466;53.574;9.976;2023-04-16T13:54:05;18.40;;;15.60;;
14748;SDS011;7466;53.574;9.976;2023-04-16T13:56:32;16.83;;;15.03;;
14748;SDS011;7466;53.574;9.976;2023-04-16T13:58:59;16.73;;;14.93;;
14748;SDS011;7466;53.574;9.976;2023-04-16T14:01:26;17.43;;;15.53;;
14748;SDS011;7466;53.574;9.976;2023-04-16T14:03:53;16.73;;;14.90;;
14748;SDS011;7466;53.574;9.976;2023-04-16T14:06:20;16.67;;;14.97;;
14748;SDS011;7466;53.574;9.976;2023-04-16T14:08:47;18.73;;;15.33;;
14748;SDS011;7466;53.574;9.976;2023-04-16T14:11:15;16.13;;;14.60;;
14748;SDS011;7466;53.574;9.976;2023-04-16T14:13:42;16.77;;;14.80;;
14748;SDS011;7466;53.574;9.976;2023-04-16T14:16:09;16.27;;;14.63;;
14748;SDS011;7466;53.574;9.976;2023-04-16T14:18:36;16.93;;;14.70;;
14748;SDS011;7466;53.574;9.976;2023-04-16T14:21:06;16.53;;;14.83;;
14748;SDS011;7466;53.574;9.976;2023-04-16T14:23:33;17.23;;;14.80;;
14748;SDS011;7466;53.574;9.976;2023-04-16T14:26:00;19.17;;;15.17;;
14748;SDS011;7466;53.574;9.976;2023-04-16T14:28:29;17.10;;;15.30;;
14748;SDS011;7466;53.574;9.976;2023-04-16T14:30:56;15.70;;;13.97;;
14748;SDS011;7466;53.574;9.976;2023-04-16T14:33:23;15.67;;;14.10;;
14748;SDS011;7466;53.574;9.976;2023-04-16T14:35:50;15.93;;;14.33;;
14748;SDS011;7466;53.574;9.976;2023-04-16T14:38:17;17.10;;;15.03;;
14748;SDS011;7466;53.574;9.976;2023-04-16T14:40:44;16.03;;;14.53;;
14748;SDS011;7466;53.574;9.976;2023-04-16T14:43:10;16.07;;;14.40;;
14748;SDS011;7466;53.574;9.976;2023-04-16T14:45:38;16.47;;;14.87;;
14748;SDS011;7466;53.574;9.976;2023-04-16T14:48:05;17.23;;;15.20;;